METAR Data
IDs: Format: Raw Decoded Include TAF

Data at: 0358 UTC 24 Jun 2021

METAR for:KCVG (Cincinnati Intl, KY, US)
Text:KCVG 240352Z 13008KT 10SM CLR 19/10 A3016 RMK AO2 SLP205 T01890100
Temperature: 18.9°C ( 66°F)
Dewpoint: 10.0°C ( 50°F) [RH = 56%]
Pressure (altimeter):30.16 inches Hg (1021.4 mb) [Sea level pressure: 1020.5 mb]
Winds:from the SE (130 degrees) at 9 MPH (8 knots; 4.1 m/s)
Visibility:10 or more sm (16+ km)
Ceiling:at least 12,000 feet AGL
Clouds:sky clear below 12,000 feet AGL